Baltimore, Maryland
Traffic Map
Current Weather Conditions
Baltimore, Maryland
Scattered Clouds
Scattered Clouds
27°
Feels Like: 28°
Wind Chill: 27° Ceiling: Unl
Heat Index: 28° Visibility: 10mi
Dew Point: 19° Wind: 3mph
Humidity: 60% Direction: 140° (SE)
Pressure: 30.15in Gusts: 0mph
Raw Report DataKBWI 272354Z 14003KT 10SM FEW060 SCT250 27/19 A3015 RMK AO2 SLP210 T02720189 10322 20267 53005
Traffic Incident Summary
Active as of:
Severity:
Category:
InformationThere was an issue retrieving the traffic information for this location. Please try a different location or try again shortly.
Advertisements
Track Severe Weather on mobile